sensor_id;sensor_type;location;lat;lon;timestamp;pressure;altitude;pressure_sealevel;temperature;humidity
50859;BME280;36826;47.514;19.056;2023-05-19T00:01:46;100726.06;;;26.07;40.20
50859;BME280;36826;47.514;19.056;2023-05-19T00:04:15;100734.94;;;24.74;42.13
50859;BME280;36826;47.514;19.056;2023-05-19T00:06:41;100726.22;;;25.86;40.79
50859;BME280;36826;47.514;19.056;2023-05-19T00:09:08;100729.06;;;25.09;41.74
50859;BME280;36826;47.514;19.056;2023-05-19T00:11:35;100730.16;;;25.01;41.37
50859;BME280;36826;47.514;19.056;2023-05-19T00:14:02;100731.81;;;25.09;41.20
50859;BME280;36826;47.514;19.056;2023-05-19T00:16:29;100721.19;;;25.19;41.51
50859;BME280;36826;47.514;19.056;2023-05-19T00:18:56;100726.84;;;24.86;41.89
50859;BME280;36826;47.514;19.056;2023-05-19T00:21:24;100728.41;;;25.13;41.47
50859;BME280;36826;47.514;19.056;2023-05-19T00:23:49;100733.25;;;25.11;41.32
50859;BME280;36826;47.514;19.056;2023-05-19T00:26:16;100727.03;;;25.36;41.04
50859;BME280;36826;47.514;19.056;2023-05-19T00:28:42;100730.00;;;25.28;41.51
50859;BME280;36826;47.514;19.056;2023-05-19T00:31:07;100719.84;;;25.42;41.20
50859;BME280;36826;47.514;19.056;2023-05-19T00:33:33;100725.63;;;25.59;40.75
50859;BME280;36826;47.514;19.056;2023-05-19T00:36:00;100720.56;;;25.56;41.06
50859;BME280;36826;47.514;19.056;2023-05-19T00:38:29;100707.34;;;25.46;41.67
50859;BME280;36826;47.514;19.056;2023-05-19T00:40:54;100711.00;;;25.65;41.15
50859;BME280;36826;47.514;19.056;2023-05-19T00:43:20;100710.81;;;24.96;42.48
50859;BME280;36826;47.514;19.056;2023-05-19T00:45:46;100715.25;;;24.90;42.32
50859;BME280;36826;47.514;19.056;2023-05-19T00:48:11;100715.13;;;24.72;42.93
50859;BME280;36826;47.514;19.056;2023-05-19T00:50:37;100707.66;;;24.92;42.71
50859;BME280;36826;47.514;19.056;2023-05-19T00:53:02;100712.94;;;24.94;42.49
50859;BME280;36826;47.514;19.056;2023-05-19T00:55:29;100703.84;;;25.32;42.02
50859;BME280;36826;47.514;19.056;2023-05-19T00:57:56;100710.88;;;24.83;42.69
50859;BME280;36826;47.514;19.056;2023-05-19T01:00:22;100702.44;;;25.55;41.36
50859;BME280;36826;47.514;19.056;2023-05-19T01:02:48;100706.81;;;25.63;41.34
50859;BME280;36826;47.514;19.056;2023-05-19T01:05:15;100712.19;;;25.76;41.18
50859;BME280;36826;47.514;19.056;2023-05-19T01:07:41;100705.84;;;25.50;41.32
50859;BME280;36826;47.514;19.056;2023-05-19T01:10:07;100702.53;;;25.41;41.20
50859;BME280;36826;47.514;19.056;2023-05-19T01:12:33;100710.22;;;25.19;41.95
50859;BME280;36826;47.514;19.056;2023-05-19T01:14:59;100712.69;;;24.95;42.31
50859;BME280;36826;47.514;19.056;2023-05-19T01:17:44;100707.00;;;24.97;41.98
50859;BME280;36826;47.514;19.056;2023-05-19T01:20:23;100704.56;;;24.75;42.58
50859;BME280;36826;47.514;19.056;2023-05-19T01:31:21;100714.47;;;25.54;40.93
50859;BME280;36826;47.514;19.056;2023-05-19T01:33:48;100715.31;;;25.16;41.57
50859;BME280;36826;47.514;19.056;2023-05-19T01:36:16;100712.50;;;25.29;41.02
50859;BME280;36826;47.514;19.056;2023-05-19T01:38:44;100709.84;;;25.16;41.24
50859;BME280;36826;47.514;19.056;2023-05-19T01:41:10;100704.72;;;24.08;43.50
50859;BME280;36826;47.514;19.056;2023-05-19T01:43:37;100703.41;;;24.44;43.04
50859;BME280;36826;47.514;19.056;2023-05-19T01:46:04;100707.66;;;25.31;41.68
50859;BME280;36826;47.514;19.056;2023-05-19T01:48:30;100703.34;;;25.49;41.41
50859;BME280;36826;47.514;19.056;2023-05-19T01:50:57;100703.53;;;25.47;41.18
50859;BME280;36826;47.514;19.056;2023-05-19T01:53:23;100701.25;;;25.37;41.36
50859;BME280;36826;47.514;19.056;2023-05-19T01:55:50;100693.31;;;25.29;41.58
50859;BME280;36826;47.514;19.056;2023-05-19T01:58:29;100700.91;;;25.84;40.78
50859;BME280;36826;47.514;19.056;2023-05-19T02:00:57;100703.19;;;25.69;40.95
50859;BME280;36826;47.514;19.056;2023-05-19T02:09:25;100707.69;;;25.82;40.79
50859;BME280;36826;47.514;19.056;2023-05-19T02:11:58;100699.59;;;25.94;40.49
50859;BME280;36826;47.514;19.056;2023-05-19T02:14:38;100705.19;;;25.80;40.60
50859;BME280;36826;47.514;19.056;2023-05-19T02:17:04;100701.16;;;25.25;41.39
50859;BME280;36826;47.514;19.056;2023-05-19T02:19:33;100707.19;;;25.66;40.92
50859;BME280;36826;47.514;19.056;2023-05-19T02:21:59;100705.31;;;25.67;40.95
50859;BME280;36826;47.514;19.056;2023-05-19T02:24:25;100710.63;;;25.62;40.92
50859;BME280;36826;47.514;19.056;2023-05-19T02:26:51;100708.31;;;25.58;40.90
50859;BME280;36826;47.514;19.056;2023-05-19T02:29:18;100704.53;;;25.85;40.68
50859;BME280;36826;47.514;19.056;2023-05-19T02:31:43;100705.53;;;25.91;40.48
50859;BME280;36826;47.514;19.056;2023-05-19T02:34:09;100703.41;;;25.93;40.57
50859;BME280;36826;47.514;19.056;2023-05-19T02:36:35;100707.81;;;25.68;41.23
50859;BME280;36826;47.514;19.056;2023-05-19T02:39:03;100702.94;;;25.70;41.11
50859;BME280;36826;47.514;19.056;2023-05-19T02:41:29;100708.94;;;25.86;41.03
50859;BME280;36826;47.514;19.056;2023-05-19T02:43:55;100712.06;;;25.64;41.56
50859;BME280;36826;47.514;19.056;2023-05-19T02:46:20;100712.91;;;25.65;41.74
50859;BME280;36826;47.514;19.056;2023-05-19T02:48:46;100711.47;;;25.62;41.39
50859;BME280;36826;47.514;19.056;2023-05-19T02:51:11;100700.53;;;25.81;41.12
50859;BME280;36826;47.514;19.056;2023-05-19T02:53:37;100696.38;;;25.97;41.05
50859;BME280;36826;47.514;19.056;2023-05-19T02:56:02;100699.72;;;26.24;40.47
50859;BME280;36826;47.514;19.056;2023-05-19T02:58:28;100693.53;;;26.10;40.66
50859;BME280;36826;47.514;19.056;2023-05-19T03:00:54;100694.03;;;26.00;41.01
50859;BME280;36826;47.514;19.056;2023-05-19T03:03:20;100702.53;;;25.92;41.10
50859;BME280;36826;47.514;19.056;2023-05-19T03:05:45;100700.47;;;25.87;41.26
50859;BME280;36826;47.514;19.056;2023-05-19T03:08:11;100705.19;;;25.80;41.22
50859;BME280;36826;47.514;19.056;2023-05-19T03:10:37;100713.66;;;25.15;42.76
50859;BME280;36826;47.514;19.056;2023-05-19T03:13:02;100712.47;;;25.04;43.12
50859;BME280;36826;47.514;19.056;2023-05-19T03:15:28;100707.09;;;25.16;43.00
50859;BME280;36826;47.514;19.056;2023-05-19T03:17:54;100703.66;;;24.95;43.38
50859;BME280;36826;47.514;19.056;2023-05-19T03:20:20;100704.22;;;24.51;44.35
50859;BME280;36826;47.514;19.056;2023-05-19T03:22:46;100708.72;;;25.62;42.30
50859;BME280;36826;47.514;19.056;2023-05-19T03:25:11;100710.97;;;25.40;42.47
50859;BME280;36826;47.514;19.056;2023-05-19T03:27:37;100720.56;;;25.56;42.18
50859;BME280;36826;47.514;19.056;2023-05-19T03:30:03;100720.19;;;24.75;43.84
50859;BME280;36826;47.514;19.056;2023-05-19T03:32:29;100728.47;;;25.71;42.10
50859;BME280;36826;47.514;19.056;2023-05-19T03:34:56;100721.22;;;24.67;44.42
50859;BME280;36826;47.514;19.056;2023-05-19T03:37:21;100709.75;;;24.25;44.93
50859;BME280;36826;47.514;19.056;2023-05-19T03:39:47;100713.06;;;24.54;44.38
50859;BME280;36826;47.514;19.056;2023-05-19T03:42:12;100710.41;;;24.86;44.15
50859;BME280;36826;47.514;19.056;2023-05-19T03:44:38;100708.88;;;25.35;42.56
50859;BME280;36826;47.514;19.056;2023-05-19T03:47:04;100709.88;;;25.48;42.42
50859;BME280;36826;47.514;19.056;2023-05-19T03:49:29;100704.91;;;25.63;41.91
50859;BME280;36826;47.514;19.056;2023-05-19T03:51:55;100709.06;;;25.72;41.23
50859;BME280;36826;47.514;19.056;2023-05-19T03:54:20;100709.03;;;25.40;41.98
50859;BME280;36826;47.514;19.056;2023-05-19T03:56:47;100714.03;;;25.82;41.57
50859;BME280;36826;47.514;19.056;2023-05-19T03:59:12;100714.81;;;26.15;40.97
50859;BME280;36826;47.514;19.056;2023-05-19T04:01:38;100714.69;;;26.47;40.47
50859;BME280;36826;47.514;19.056;2023-05-19T04:04:03;100715.91;;;26.88;39.83
50859;BME280;36826;47.514;19.056;2023-05-19T04:06:29;100715.59;;;26.78;39.98
50859;BME280;36826;47.514;19.056;2023-05-19T04:08:55;100714.31;;;27.11;39.08
50859;BME280;36826;47.514;19.056;2023-05-19T04:11:20;100717.13;;;26.55;40.65
50859;BME280;36826;47.514;19.056;2023-05-19T04:13:46;100722.81;;;26.72;40.32
50859;BME280;36826;47.514;19.056;2023-05-19T04:16:12;100718.22;;;27.76;38.29
50859;BME280;36826;47.514;19.056;2023-05-19T04:18:37;100725.28;;;27.30;38.99
50859;BME280;36826;47.514;19.056;2023-05-19T04:21:03;100723.72;;;27.34;38.44
50859;BME280;36826;47.514;19.056;2023-05-19T04:23:28;100727.16;;;27.60;37.70
50859;BME280;36826;47.514;19.056;2023-05-19T04:25:54;100721.72;;;27.41;38.59
50859;BME280;36826;47.514;19.056;2023-05-19T04:28:21;100728.63;;;27.74;38.19
50859;BME280;36826;47.514;19.056;2023-05-19T04:30:48;100727.09;;;28.02;37.57
50859;BME280;36826;47.514;19.056;2023-05-19T04:33:14;100737.09;;;26.25;40.08
50859;BME280;36826;47.514;19.056;2023-05-19T04:35:40;100739.13;;;27.53;38.65
50859;BME280;36826;47.514;19.056;2023-05-19T04:38:06;100732.69;;;27.83;38.16
50859;BME280;36826;47.514;19.056;2023-05-19T04:40:31;100735.94;;;27.92;37.66
50859;BME280;36826;47.514;19.056;2023-05-19T04:42:57;100741.94;;;26.67;39.30
50859;BME280;36826;47.514;19.056;2023-05-19T04:45:23;100741.72;;;26.87;39.34
50859;BME280;36826;47.514;19.056;2023-05-19T04:47:50;100748.16;;;28.08;37.98
50859;BME280;36826;47.514;19.056;2023-05-19T04:50:16;100749.94;;;27.91;37.82
50859;BME280;36826;47.514;19.056;2023-05-19T04:52:42;100749.53;;;27.33;38.48
50859;BME280;36826;47.514;19.056;2023-05-19T04:55:10;100746.63;;;27.46;38.45
50859;BME280;36826;47.514;19.056;2023-05-19T04:57:35;100749.72;;;28.52;36.68
50859;BME280;36826;47.514;19.056;2023-05-19T05:00:02;100752.31;;;28.70;35.87
50859;BME280;36826;47.514;19.056;2023-05-19T05:02:31;100751.84;;;29.14;35.65
50859;BME280;36826;47.514;19.056;2023-05-19T05:04:58;100750.69;;;28.22;36.81
50859;BME280;36826;47.514;19.056;2023-05-19T05:07:23;100750.00;;;28.26;36.70
50859;BME280;36826;47.514;19.056;2023-05-19T05:09:49;100757.63;;;28.36;36.84
50859;BME280;36826;47.514;19.056;2023-05-19T05:12:15;100755.31;;;28.69;36.33
50859;BME280;36826;47.514;19.056;2023-05-19T05:14:41;100765.13;;;28.88;35.68
50859;BME280;36826;47.514;19.056;2023-05-19T05:17:07;100766.19;;;29.91;34.30
50859;BME280;36826;47.514;19.056;2023-05-19T05:19:34;100762.38;;;30.66;33.46
50859;BME280;36826;47.514;19.056;2023-05-19T05:21:59;100759.19;;;31.01;32.79
50859;BME280;36826;47.514;19.056;2023-05-19T05:24:25;100766.28;;;30.70;32.94
50859;BME280;36826;47.514;19.056;2023-05-19T05:26:51;100769.66;;;29.35;34.64
50859;BME280;36826;47.514;19.056;2023-05-19T05:29:18;100767.25;;;29.56;34.69
50859;BME280;36826;47.514;19.056;2023-05-19T05:31:45;100771.50;;;30.49;33.88
50859;BME280;36826;47.514;19.056;2023-05-19T05:34:10;100771.03;;;29.67;34.53
50859;BME280;36826;47.514;19.056;2023-05-19T05:36:36;100766.63;;;30.17;33.80
50859;BME280;36826;47.514;19.056;2023-05-19T05:39:01;100764.59;;;29.32;35.05
50859;BME280;36826;47.514;19.056;2023-05-19T05:41:28;100767.66;;;30.50;34.13
50859;BME280;36826;47.514;19.056;2023-05-19T05:44:00;100769.53;;;29.76;34.51
50859;BME280;36826;47.514;19.056;2023-05-19T05:46:25;100760.50;;;30.71;33.90
50859;BME280;36826;47.514;19.056;2023-05-19T05:48:51;100757.19;;;33.33;30.65
50859;BME280;36826;47.514;19.056;2023-05-19T05:51:20;100767.22;;;34.38;28.53
50859;BME280;36826;47.514;19.056;2023-05-19T05:53:51;100763.28;;;33.20;29.33
50859;BME280;36826;47.514;19.056;2023-05-19T05:56:17;100766.69;;;33.48;29.43
50859;BME280;36826;47.514;19.056;2023-05-19T05:58:42;100767.81;;;33.93;28.88
50859;BME280;36826;47.514;19.056;2023-05-19T06:01:08;100770.66;;;32.83;30.03
50859;BME280;36826;47.514;19.056;2023-05-19T06:03:38;100772.69;;;33.09;29.86
50859;BME280;36826;47.514;19.056;2023-05-19T06:06:04;100770.03;;;33.65;29.57
50859;BME280;36826;47.514;19.056;2023-05-19T06:08:30;100766.97;;;34.14;28.81
50859;BME280;36826;47.514;19.056;2023-05-19T06:10:56;100776.69;;;34.16;28.37
50859;BME280;36826;47.514;19.056;2023-05-19T06:13:25;100776.63;;;34.57;28.22
50859;BME280;36826;47.514;19.056;2023-05-19T06:15:51;100777.34;;;36.38;26.48
50859;BME280;36826;47.514;19.056;2023-05-19T06:18:17;100770.38;;;37.27;24.66
50859;BME280;36826;47.514;19.056;2023-05-19T06:20:43;100776.59;;;37.76;23.97
50859;BME280;36826;47.514;19.056;2023-05-19T06:23:08;100775.91;;;39.02;23.88
50859;BME280;36826;47.514;19.056;2023-05-19T06:25:34;100785.38;;;38.64;22.93
50859;BME280;36826;47.514;19.056;2023-05-19T06:27:59;100789.09;;;38.87;22.78
50859;BME280;36826;47.514;19.056;2023-05-19T06:30:25;100786.63;;;37.97;23.29
50859;BME280;36826;47.514;19.056;2023-05-19T06:32:50;100783.44;;;36.69;24.47
50859;BME280;36826;47.514;19.056;2023-05-19T06:35:16;100791.84;;;35.31;25.34
50859;BME280;36826;47.514;19.056;2023-05-19T06:37:41;100794.06;;;35.34;25.61
50859;BME280;36826;47.514;19.056;2023-05-19T06:40:07;100803.06;;;34.34;26.84
50859;BME280;36826;47.514;19.056;2023-05-19T06:42:33;100793.38;;;35.58;25.66
50859;BME280;36826;47.514;19.056;2023-05-19T06:44:58;100804.38;;;36.67;24.71
50859;BME280;36826;47.514;19.056;2023-05-19T06:47:24;100800.09;;;37.42;24.06
50859;BME280;36826;47.514;19.056;2023-05-19T06:49:49;100807.75;;;38.50;22.46
50859;BME280;36826;47.514;19.056;2023-05-19T06:52:19;100804.63;;;37.90;23.35
50859;BME280;36826;47.514;19.056;2023-05-19T06:54:44;100801.97;;;37.99;23.08
50859;BME280;36826;47.514;19.056;2023-05-19T06:57:13;100814.63;;;37.58;22.64
50859;BME280;36826;47.514;19.056;2023-05-19T06:59:39;100812.56;;;35.64;24.82
50859;BME280;36826;47.514;19.056;2023-05-19T07:02:06;100808.13;;;36.57;25.58
50859;BME280;36826;47.514;19.056;2023-05-19T07:04:31;100819.53;;;38.19;23.21
50859;BME280;36826;47.514;19.056;2023-05-19T07:06:57;100812.53;;;38.49;22.55
50859;BME280;36826;47.514;19.056;2023-05-19T07:09:23;100809.06;;;36.96;23.60
50859;BME280;36826;47.514;19.056;2023-05-19T07:11:48;100808.28;;;37.34;23.25
50859;BME280;36826;47.514;19.056;2023-05-19T07:14:14;100805.09;;;36.24;23.90
50859;BME280;36826;47.514;19.056;2023-05-19T07:16:39;100806.91;;;36.09;24.02
50859;BME280;36826;47.514;19.056;2023-05-19T07:19:05;100802.22;;;36.05;24.45
50859;BME280;36826;47.514;19.056;2023-05-19T07:21:30;100800.94;;;36.51;24.54
50859;BME280;36826;47.514;19.056;2023-05-19T07:23:56;100798.69;;;37.59;22.96
50859;BME280;36826;47.514;19.056;2023-05-19T07:26:21;100808.47;;;38.28;22.65
50859;BME280;36826;47.514;19.056;2023-05-19T07:28:47;100793.91;;;39.83;20.94
50859;BME280;36826;47.514;19.056;2023-05-19T07:31:13;100795.53;;;40.29;19.82
50859;BME280;36826;47.514;19.056;2023-05-19T07:33:39;100790.69;;;42.37;18.92
50859;BME280;36826;47.514;19.056;2023-05-19T07:36:04;100791.91;;;42.87;18.33
50859;BME280;36826;47.514;19.056;2023-05-19T07:38:30;100792.91;;;43.34;18.17
50859;BME280;36826;47.514;19.056;2023-05-19T07:40:58;100790.16;;;44.38;17.16
50859;BME280;36826;47.514;19.056;2023-05-19T07:43:24;100791.53;;;42.98;17.90
50859;BME280;36826;47.514;19.056;2023-05-19T07:45:49;100780.22;;;41.81;18.44
50859;BME280;36826;47.514;19.056;2023-05-19T07:48:15;100788.78;;;43.98;17.10
50859;BME280;36826;47.514;19.056;2023-05-19T07:50:42;100784.44;;;40.64;19.63
50859;BME280;36826;47.514;19.056;2023-05-19T07:53:08;100782.06;;;39.86;19.85
50859;BME280;36826;47.514;19.056;2023-05-19T07:55:33;100780.72;;;41.04;19.84
50859;BME280;36826;47.514;19.056;2023-05-19T07:57:59;100781.09;;;43.19;18.50
50859;BME280;36826;47.514;19.056;2023-05-19T08:00:25;100781.72;;;43.25;17.80
50859;BME280;36826;47.514;19.056;2023-05-19T08:02:50;100776.06;;;43.46;18.21
50859;BME280;36826;47.514;19.056;2023-05-19T08:05:16;100781.69;;;43.46;18.08
50859;BME280;36826;47.514;19.056;2023-05-19T08:07:42;100773.50;;;45.24;16.50
50859;BME280;36826;47.514;19.056;2023-05-19T08:10:08;100768.25;;;46.63;15.64
50859;BME280;36826;47.514;19.056;2023-05-19T08:12:33;100769.78;;;46.40;15.96
50859;BME280;36826;47.514;19.056;2023-05-19T08:14:59;100772.16;;;47.10;15.28
50859;BME280;36826;47.514;19.056;2023-05-19T08:17:24;100772.63;;;47.94;15.08
50859;BME280;36826;47.514;19.056;2023-05-19T08:19:50;100776.41;;;48.02;14.19
50859;BME280;36826;47.514;19.056;2023-05-19T08:22:15;100768.19;;;44.56;16.57
50859;BME280;36826;47.514;19.056;2023-05-19T08:24:40;100779.13;;;43.53;18.04
50859;BME280;36826;47.514;19.056;2023-05-19T08:27:07;100770.28;;;44.97;16.58
50859;BME280;36826;47.514;19.056;2023-05-19T08:29:33;100768.75;;;44.87;16.88
50859;BME280;36826;47.514;19.056;2023-05-19T08:31:58;100769.09;;;43.65;17.36
50859;BME280;36826;47.514;19.056;2023-05-19T08:34:24;100765.00;;;42.00;19.30
50859;BME280;36826;47.514;19.056;2023-05-19T08:36:50;100756.47;;;41.17;19.87
50859;BME280;36826;47.514;19.056;2023-05-19T08:39:15;100761.88;;;41.05;20.81
50859;BME280;36826;47.514;19.056;2023-05-19T08:41:43;100763.50;;;40.30;20.27
50859;BME280;36826;47.514;19.056;2023-05-19T08:44:08;100762.78;;;38.74;22.56
50859;BME280;36826;47.514;19.056;2023-05-19T08:46:34;100759.88;;;40.88;20.73
50859;BME280;36826;47.514;19.056;2023-05-19T08:49:10;100759.00;;;42.10;18.84
50859;BME280;36826;47.514;19.056;2023-05-19T08:54:15;100766.56;;;39.66;21.02
50859;BME280;36826;47.514;19.056;2023-05-19T08:56:43;100769.31;;;38.56;22.42
50859;BME280;36826;47.514;19.056;2023-05-19T08:59:09;100764.94;;;39.05;21.50
50859;BME280;36826;47.514;19.056;2023-05-19T09:01:36;100765.44;;;38.24;23.01
50859;BME280;36826;47.514;19.056;2023-05-19T09:04:02;100768.97;;;38.99;22.43
50859;BME280;36826;47.514;19.056;2023-05-19T09:06:27;100762.59;;;40.12;21.38
50859;BME280;36826;47.514;19.056;2023-05-19T09:08:56;100763.03;;;42.39;19.31
50859;BME280;36826;47.514;19.056;2023-05-19T09:11:22;100766.19;;;42.68;17.92
50859;BME280;36826;47.514;19.056;2023-05-19T09:13:47;100769.25;;;42.84;18.33
50859;BME280;36826;47.514;19.056;2023-05-19T09:16:14;100763.75;;;45.49;16.61
50859;BME280;36826;47.514;19.056;2023-05-19T09:18:39;100758.97;;;44.97;16.07
50859;BME280;36826;47.514;19.056;2023-05-19T09:21:17;100760.72;;;43.56;17.08
50859;BME280;36826;47.514;19.056;2023-05-19T09:23:45;100754.69;;;46.36;15.08
50859;BME280;36826;47.514;19.056;2023-05-19T09:26:14;100758.69;;;45.71;14.89
50859;BME280;36826;47.514;19.056;2023-05-19T09:28:39;100760.47;;;44.94;15.96
50859;BME280;36826;47.514;19.056;2023-05-19T09:31:05;100759.38;;;42.00;17.42
50859;BME280;36826;47.514;19.056;2023-05-19T09:33:35;100762.06;;;42.35;17.89
50859;BME280;36826;47.514;19.056;2023-05-19T09:36:02;100756.78;;;41.07;18.23
50859;BME280;36826;47.514;19.056;2023-05-19T09:38:30;100745.72;;;40.44;18.92
50859;BME280;36826;47.514;19.056;2023-05-19T09:40:58;100747.72;;;39.80;19.44
50859;BME280;36826;47.514;19.056;2023-05-19T09:43:31;100754.66;;;44.50;17.01
50859;BME280;36826;47.514;19.056;2023-05-19T09:46:07;100751.91;;;47.27;14.14
50859;BME280;36826;47.514;19.056;2023-05-19T09:48:34;100747.38;;;47.89;13.75
50859;BME280;36826;47.514;19.056;2023-05-19T09:51:01;100743.81;;;45.74;14.91
50859;BME280;36826;47.514;19.056;2023-05-19T09:53:28;100741.84;;;39.22;19.87
50859;BME280;36826;47.514;19.056;2023-05-19T09:55:55;100744.22;;;41.13;19.26
50859;BME280;36826;47.514;19.056;2023-05-19T09:58:25;100739.25;;;42.19;17.91
50859;BME280;36826;47.514;19.056;2023-05-19T10:00:51;100737.38;;;42.92;17.49
50859;BME280;36826;47.514;19.056;2023-05-19T10:03:20;100734.47;;;41.10;18.71
50859;BME280;36826;47.514;19.056;2023-05-19T10:05:47;100731.91;;;41.97;18.36
50859;BME280;36826;47.514;19.056;2023-05-19T10:08:13;100727.81;;;44.06;16.92
50859;BME280;36826;47.514;19.056;2023-05-19T10:10:43;100725.69;;;40.94;19.42
50859;BME280;36826;47.514;19.056;2023-05-19T10:13:10;100724.38;;;42.10;17.90
50859;BME280;36826;47.514;19.056;2023-05-19T10:15:36;100718.75;;;42.10;18.21
50859;BME280;36826;47.514;19.056;2023-05-19T10:18:02;100717.41;;;39.59;19.27
50859;BME280;36826;47.514;19.056;2023-05-19T10:20:29;100710.31;;;37.49;22.02
50859;BME280;36826;47.514;19.056;2023-05-19T10:22:55;100715.91;;;36.92;22.33
50859;BME280;36826;47.514;19.056;2023-05-19T10:25:21;100704.13;;;36.27;23.92
50859;BME280;36826;47.514;19.056;2023-05-19T10:28:01;100704.25;;;36.17;23.90
50859;BME280;36826;47.514;19.056;2023-05-19T10:30:43;100703.28;;;37.52;22.48
50859;BME280;36826;47.514;19.056;2023-05-19T10:33:12;100710.00;;;38.12;21.75
50859;BME280;36826;47.514;19.056;2023-05-19T10:41:34;100720.19;;;35.07;24.25
50859;BME280;36826;47.514;19.056;2023-05-19T10:46:35;100710.34;;;39.03;20.83
50859;BME280;36826;47.514;19.056;2023-05-19T10:49:00;100701.75;;;38.48;21.16
50859;BME280;36826;47.514;19.056;2023-05-19T10:51:32;100699.25;;;38.19;21.39
50859;BME280;36826;47.514;19.056;2023-05-19T10:54:02;100702.41;;;37.84;21.97
50859;BME280;36826;47.514;19.056;2023-05-19T10:56:33;100692.66;;;37.68;22.07
50859;BME280;36826;47.514;19.056;2023-05-19T10:59:01;100694.28;;;37.36;22.85
50859;BME280;36826;47.514;19.056;2023-05-19T11:01:31;100696.34;;;38.10;21.85
50859;BME280;36826;47.514;19.056;2023-05-19T11:04:03;100691.09;;;37.61;22.47
50859;BME280;36826;47.514;19.056;2023-05-19T11:06:31;100682.00;;;37.70;22.04
50859;BME280;36826;47.514;19.056;2023-05-19T11:11:22;100677.50;;;34.77;25.41
50859;BME280;36826;47.514;19.056;2023-05-19T11:13:54;100674.44;;;35.88;24.69
50859;BME280;36826;47.514;19.056;2023-05-19T11:16:31;100668.19;;;34.52;25.62
50859;BME280;36826;47.514;19.056;2023-05-19T11:19:00;100666.94;;;34.74;25.42
50859;BME280;36826;47.514;19.056;2023-05-19T11:21:46;100671.81;;;35.03;24.82
50859;BME280;36826;47.514;19.056;2023-05-19T11:24:44;100672.47;;;36.18;23.94
50859;BME280;36826;47.514;19.056;2023-05-19T11:27:34;100683.28;;;35.31;24.97
50859;BME280;36826;47.514;19.056;2023-05-19T11:32:32;100673.16;;;36.53;23.43
50859;BME280;36826;47.514;19.056;2023-05-19T11:34:59;100680.25;;;36.64;23.56
50859;BME280;36826;47.514;19.056;2023-05-19T11:37:25;100673.56;;;37.04;22.38
50859;BME280;36826;47.514;19.056;2023-05-19T11:39:52;100669.47;;;37.15;22.92
50859;BME280;36826;47.514;19.056;2023-05-19T11:42:18;100663.06;;;36.08;23.63
50859;BME280;36826;47.514;19.056;2023-05-19T11:44:44;100663.41;;;35.77;24.16
50859;BME280;36826;47.514;19.056;2023-05-19T11:47:11;100666.50;;;32.44;27.89
50859;BME280;36826;47.514;19.056;2023-05-19T11:49:36;100675.38;;;31.61;28.98
50859;BME280;36826;47.514;19.056;2023-05-19T11:52:03;100673.91;;;33.80;26.68
50859;BME280;36826;47.514;19.056;2023-05-19T11:54:33;100659.00;;;34.57;26.04
50859;BME280;36826;47.514;19.056;2023-05-19T11:57:02;100666.16;;;35.13;25.19
50859;BME280;36826;47.514;19.056;2023-05-19T11:59:29;100662.53;;;34.68;25.64
50859;BME280;36826;47.514;19.056;2023-05-19T12:01:55;100674.56;;;34.53;25.96
50859;BME280;36826;47.514;19.056;2023-05-19T12:04:20;100666.09;;;34.03;26.54
50859;BME280;36826;47.514;19.056;2023-05-19T12:06:47;100665.22;;;34.83;25.78
50859;BME280;36826;47.514;19.056;2023-05-19T12:09:13;100661.16;;;33.07;27.51
50859;BME280;36826;47.514;19.056;2023-05-19T12:11:39;100668.97;;;33.35;27.21
50859;BME280;36826;47.514;19.056;2023-05-19T12:14:04;100657.25;;;33.90;26.77
50859;BME280;36826;47.514;19.056;2023-05-19T12:16:34;100666.06;;;34.23;26.25
50859;BME280;36826;47.514;19.056;2023-05-19T12:19:00;100649.97;;;34.76;25.79
50859;BME280;36826;47.514;19.056;2023-05-19T12:21:28;100651.75;;;33.49;27.22
50859;BME280;36826;47.514;19.056;2023-05-19T12:23:54;100650.38;;;35.03;25.42
50859;BME280;36826;47.514;19.056;2023-05-19T12:26:20;100645.69;;;34.38;26.06
50859;BME280;36826;47.514;19.056;2023-05-19T12:28:46;100646.69;;;33.87;26.78
50859;BME280;36826;47.514;19.056;2023-05-19T12:31:13;100631.19;;;33.40;27.21
50859;BME280;36826;47.514;19.056;2023-05-19T12:33:39;100634.22;;;33.23;27.74
50859;BME280;36826;47.514;19.056;2023-05-19T12:36:04;100625.94;;;34.50;26.51
50859;BME280;36826;47.514;19.056;2023-05-19T12:38:30;100624.59;;;34.87;25.80
50859;BME280;36826;47.514;19.056;2023-05-19T12:40:57;100622.44;;;35.48;25.36
50859;BME280;36826;47.514;19.056;2023-05-19T12:43:24;100621.31;;;35.20;25.18
50859;BME280;36826;47.514;19.056;2023-05-19T12:45:50;100625.13;;;34.90;25.65
50859;BME280;36826;47.514;19.056;2023-05-19T12:48:16;100607.72;;;35.72;25.02
50859;BME280;36826;47.514;19.056;2023-05-19T12:50:42;100606.16;;;35.31;25.04
50859;BME280;36826;47.514;19.056;2023-05-19T12:53:13;100604.59;;;35.55;24.96
50859;BME280;36826;47.514;19.056;2023-05-19T12:55:39;100602.22;;;35.67;25.21
50859;BME280;36826;47.514;19.056;2023-05-19T12:58:09;100609.06;;;35.51;25.50
50859;BME280;36826;47.514;19.056;2023-05-19T13:00:42;100600.78;;;35.70;24.99
50859;BME280;36826;47.514;19.056;2023-05-19T13:03:16;100609.19;;;35.94;24.83
50859;BME280;36826;47.514;19.056;2023-05-19T13:05:45;100607.06;;;36.53;24.40
50859;BME280;36826;47.514;19.056;2023-05-19T13:08:13;100606.00;;;35.76;25.07
50859;BME280;36826;47.514;19.056;2023-05-19T13:10:40;100607.31;;;36.33;24.22